sensor_id;sensor_type;location;lat;lon;timestamp;pressure;altitude;pressure_sealevel;temperature;humidity
69570;BME280;56781;42.292;23.146;2023-05-23T00:02:15;95331.75;;;12.61;92.30
69570;BME280;56781;42.292;23.146;2023-05-23T00:04:42;95324.66;;;12.39;94.26
69570;BME280;56781;42.292;23.146;2023-05-23T00:07:10;95334.56;;;12.12;96.82
69570;BME280;56781;42.292;23.146;2023-05-23T00:09:37;95352.56;;;12.12;98.33
69570;BME280;56781;42.292;23.146;2023-05-23T00:12:04;95347.06;;;12.08;98.89
69570;BME280;56781;42.292;23.146;2023-05-23T00:14:32;95356.91;;;11.82;100.00
69570;BME280;56781;42.292;23.146;2023-05-23T00:17:01;95341.22;;;11.66;100.00
69570;BME280;56781;42.292;23.146;2023-05-23T00:19:28;95349.44;;;11.30;100.00
69570;BME280;56781;42.292;23.146;2023-05-23T00:21:55;95355.25;;;11.23;100.00
69570;BME280;56781;42.292;23.146;2023-05-23T00:24:24;95343.00;;;10.77;100.00
69570;BME280;56781;42.292;23.146;2023-05-23T00:26:51;95343.38;;;10.84;100.00
69570;BME280;56781;42.292;23.146;2023-05-23T00:29:18;95352.91;;;10.77;100.00
69570;BME280;56781;42.292;23.146;2023-05-23T00:31:46;95350.00;;;10.64;100.00
69570;BME280;56781;42.292;23.146;2023-05-23T00:34:14;95360.94;;;10.77;100.00
69570;BME280;56781;42.292;23.146;2023-05-23T00:36:43;95376.78;;;10.64;100.00
69570;BME280;56781;42.292;23.146;2023-05-23T00:39:13;95355.94;;;10.39;100.00
69570;BME280;56781;42.292;23.146;2023-05-23T00:41:48;95361.66;;;10.46;100.00
69570;BME280;56781;42.292;23.146;2023-05-23T00:44:18;95377.56;;;10.42;100.00
69570;BME280;56781;42.292;23.146;2023-05-23T00:46:50;95371.31;;;10.19;100.00
69570;BME280;56781;42.292;23.146;2023-05-23T00:49:18;95366.38;;;10.27;100.00
69570;BME280;56781;42.292;23.146;2023-05-23T00:51:46;95362.00;;;10.31;100.00
69570;BME280;56781;42.292;23.146;2023-05-23T00:54:17;95349.63;;;10.35;100.00
69570;BME280;56781;42.292;23.146;2023-05-23T00:56:46;95343.56;;;10.43;100.00
69570;BME280;56781;42.292;23.146;2023-05-23T00:59:14;95342.94;;;10.46;100.00
69570;BME280;56781;42.292;23.146;2023-05-23T01:01:42;95339.88;;;10.39;100.00
69570;BME280;56781;42.292;23.146;2023-05-23T01:04:13;95337.19;;;10.39;100.00
69570;BME280;56781;42.292;23.146;2023-05-23T01:06:42;95357.06;;;10.60;100.00
69570;BME280;56781;42.292;23.146;2023-05-23T01:09:14;95336.88;;;10.54;100.00
69570;BME280;56781;42.292;23.146;2023-05-23T01:14:37;95342.72;;;10.56;100.00
69570;BME280;56781;42.292;23.146;2023-05-23T01:17:20;95322.38;;;10.55;100.00
69570;BME280;56781;42.292;23.146;2023-05-23T01:19:53;95353.31;;;10.61;100.00
69570;BME280;56781;42.292;23.146;2023-05-23T01:22:48;95351.59;;;10.65;100.00
69570;BME280;56781;42.292;23.146;2023-05-23T01:25:38;95352.44;;;10.52;100.00
69570;BME280;56781;42.292;23.146;2023-05-23T01:28:13;95347.34;;;10.28;100.00
69570;BME280;56781;42.292;23.146;2023-05-23T01:30:43;95335.84;;;10.28;100.00
69570;BME280;56781;42.292;23.146;2023-05-23T01:33:12;95341.22;;;10.28;100.00
69570;BME280;56781;42.292;23.146;2023-05-23T01:35:41;95347.78;;;10.44;100.00
69570;BME280;56781;42.292;23.146;2023-05-23T01:38:09;95364.72;;;10.53;100.00
69570;BME280;56781;42.292;23.146;2023-05-23T01:40:36;95364.13;;;10.56;100.00
69570;BME280;56781;42.292;23.146;2023-05-23T01:43:03;95365.31;;;10.50;100.00
69570;BME280;56781;42.292;23.146;2023-05-23T01:45:31;95357.97;;;10.56;100.00
69570;BME280;56781;42.292;23.146;2023-05-23T01:47:59;95341.59;;;10.35;100.00
69570;BME280;56781;42.292;23.146;2023-05-23T01:50:28;95330.13;;;10.20;100.00
69570;BME280;56781;42.292;23.146;2023-05-23T01:52:58;95343.50;;;10.20;100.00
69570;BME280;56781;42.292;23.146;2023-05-23T01:55:26;95343.09;;;10.27;100.00
69570;BME280;56781;42.292;23.146;2023-05-23T01:57:57;95356.25;;;10.37;100.00
69570;BME280;56781;42.292;23.146;2023-05-23T02:00:25;95371.38;;;10.42;100.00
69570;BME280;56781;42.292;23.146;2023-05-23T02:02:52;95339.53;;;10.18;100.00
69570;BME280;56781;42.292;23.146;2023-05-23T02:05:20;95325.28;;;10.09;100.00
69570;BME280;56781;42.292;23.146;2023-05-23T02:07:47;95349.53;;;10.12;100.00
69570;BME280;56781;42.292;23.146;2023-05-23T02:10:14;95343.59;;;10.15;100.00
69570;BME280;56781;42.292;23.146;2023-05-23T02:12:41;95358.88;;;10.29;100.00
69570;BME280;56781;42.292;23.146;2023-05-23T02:15:09;95350.31;;;10.27;100.00
69570;BME280;56781;42.292;23.146;2023-05-23T02:17:36;95362.94;;;10.49;100.00
69570;BME280;56781;42.292;23.146;2023-05-23T02:20:05;95342.03;;;10.51;100.00
69570;BME280;56781;42.292;23.146;2023-05-23T02:22:34;95341.66;;;10.66;100.00
69570;BME280;56781;42.292;23.146;2023-05-23T02:25:01;95355.09;;;10.75;100.00
69570;BME280;56781;42.292;23.146;2023-05-23T02:27:28;95344.66;;;10.64;100.00
69570;BME280;56781;42.292;23.146;2023-05-23T02:29:55;95336.84;;;10.32;100.00
69570;BME280;56781;42.292;23.146;2023-05-23T02:32:22;95368.53;;;9.74;100.00
69570;BME280;56781;42.292;23.146;2023-05-23T02:34:50;95338.41;;;9.27;100.00
69570;BME280;56781;42.292;23.146;2023-05-23T02:37:20;95342.84;;;9.18;100.00
69570;BME280;56781;42.292;23.146;2023-05-23T02:39:47;95337.78;;;9.03;100.00
69570;BME280;56781;42.292;23.146;2023-05-23T02:42:14;95342.06;;;9.04;100.00
69570;BME280;56781;42.292;23.146;2023-05-23T02:44:41;95338.25;;;8.91;100.00
69570;BME280;56781;42.292;23.146;2023-05-23T02:47:08;95335.75;;;8.81;100.00
69570;BME280;56781;42.292;23.146;2023-05-23T02:49:35;95363.69;;;9.02;100.00
69570;BME280;56781;42.292;23.146;2023-05-23T02:52:02;95331.91;;;8.87;100.00
69570;BME280;56781;42.292;23.146;2023-05-23T02:54:29;95341.56;;;8.69;100.00
69570;BME280;56781;42.292;23.146;2023-05-23T02:56:56;95344.22;;;8.69;100.00
69570;BME280;56781;42.292;23.146;2023-05-23T02:59:24;95343.56;;;8.77;100.00
69570;BME280;56781;42.292;23.146;2023-05-23T03:01:52;95343.72;;;8.67;100.00
69570;BME280;56781;42.292;23.146;2023-05-23T03:04:19;95338.44;;;8.81;100.00
69570;BME280;56781;42.292;23.146;2023-05-23T03:06:47;95340.97;;;8.72;100.00
69570;BME280;56781;42.292;23.146;2023-05-23T03:09:14;95350.06;;;8.71;100.00
69570;BME280;56781;42.292;23.146;2023-05-23T03:11:44;95342.91;;;8.53;100.00
69570;BME280;56781;42.292;23.146;2023-05-23T03:14:11;95342.38;;;8.51;100.00
69570;BME280;56781;42.292;23.146;2023-05-23T03:16:38;95354.72;;;8.79;100.00
69570;BME280;56781;42.292;23.146;2023-05-23T03:19:06;95351.69;;;8.86;100.00
69570;BME280;56781;42.292;23.146;2023-05-23T03:21:33;95337.88;;;8.98;100.00
69570;BME280;56781;42.292;23.146;2023-05-23T03:24:01;95339.22;;;8.81;100.00
69570;BME280;56781;42.292;23.146;2023-05-23T03:26:28;95331.44;;;8.85;100.00
69570;BME280;56781;42.292;23.146;2023-05-23T03:28:55;95340.91;;;8.77;100.00
69570;BME280;56781;42.292;23.146;2023-05-23T03:31:22;95340.97;;;8.72;100.00
69570;BME280;56781;42.292;23.146;2023-05-23T03:33:50;95345.53;;;8.72;100.00
69570;BME280;56781;42.292;23.146;2023-05-23T03:36:17;95365.28;;;9.17;100.00
69570;BME280;56781;42.292;23.146;2023-05-23T03:38:44;95356.50;;;9.30;100.00
69570;BME280;56781;42.292;23.146;2023-05-23T03:41:11;95349.38;;;9.12;100.00
69570;BME280;56781;42.292;23.146;2023-05-23T03:43:38;95360.28;;;8.83;100.00
69570;BME280;56781;42.292;23.146;2023-05-23T03:46:06;95339.38;;;8.71;100.00
69570;BME280;56781;42.292;23.146;2023-05-23T03:48:33;95344.56;;;8.81;100.00
69570;BME280;56781;42.292;23.146;2023-05-23T03:51:01;95346.47;;;8.95;100.00
69570;BME280;56781;42.292;23.146;2023-05-23T03:53:29;95353.00;;;9.02;100.00
69570;BME280;56781;42.292;23.146;2023-05-23T03:55:56;95364.41;;;9.08;100.00
69570;BME280;56781;42.292;23.146;2023-05-23T03:58:23;95348.19;;;9.04;100.00
69570;BME280;56781;42.292;23.146;2023-05-23T04:00:50;95355.06;;;8.92;100.00
69570;BME280;56781;42.292;23.146;2023-05-23T04:03:19;95343.22;;;8.98;100.00
69570;BME280;56781;42.292;23.146;2023-05-23T04:05:47;95360.38;;;9.24;100.00
69570;BME280;56781;42.292;23.146;2023-05-23T04:08:14;95351.50;;;9.57;100.00
69570;BME280;56781;42.292;23.146;2023-05-23T04:10:41;95349.28;;;9.86;100.00
69570;BME280;56781;42.292;23.146;2023-05-23T04:13:08;95366.53;;;9.94;100.00
69570;BME280;56781;42.292;23.146;2023-05-23T04:15:36;95370.16;;;9.98;100.00
69570;BME280;56781;42.292;23.146;2023-05-23T04:18:05;95352.56;;;9.97;100.00
69570;BME280;56781;42.292;23.146;2023-05-23T04:20:35;95357.44;;;10.17;100.00
69570;BME280;56781;42.292;23.146;2023-05-23T04:23:02;95368.97;;;10.54;100.00
69570;BME280;56781;42.292;23.146;2023-05-23T04:25:29;95370.25;;;10.57;100.00
69570;BME280;56781;42.292;23.146;2023-05-23T04:27:57;95370.44;;;10.60;100.00
69570;BME280;56781;42.292;23.146;2023-05-23T04:30:25;95362.66;;;10.73;100.00
69570;BME280;56781;42.292;23.146;2023-05-23T04:32:52;95391.75;;;11.11;100.00
69570;BME280;56781;42.292;23.146;2023-05-23T04:35:20;95384.59;;;11.28;100.00
69570;BME280;56781;42.292;23.146;2023-05-23T04:37:48;95355.22;;;11.54;100.00
69570;BME280;56781;42.292;23.146;2023-05-23T04:40:16;95367.41;;;12.01;100.00
69570;BME280;56781;42.292;23.146;2023-05-23T04:42:43;95376.44;;;12.39;100.00
69570;BME280;56781;42.292;23.146;2023-05-23T04:45:10;95368.25;;;12.36;100.00
69570;BME280;56781;42.292;23.146;2023-05-23T04:47:37;95355.13;;;12.69;100.00
69570;BME280;56781;42.292;23.146;2023-05-23T04:50:04;95370.75;;;12.93;100.00
69570;BME280;56781;42.292;23.146;2023-05-23T04:52:32;95366.75;;;13.25;98.53
69570;BME280;56781;42.292;23.146;2023-05-23T04:55:00;95360.81;;;13.58;95.54
69570;BME280;56781;42.292;23.146;2023-05-23T04:57:27;95364.28;;;13.97;94.73
69570;BME280;56781;42.292;23.146;2023-05-23T04:59:54;95379.75;;;14.59;91.67
69570;BME280;56781;42.292;23.146;2023-05-23T05:02:22;95381.19;;;14.78;89.85
69570;BME280;56781;42.292;23.146;2023-05-23T05:04:50;95358.28;;;14.84;89.74
69570;BME280;56781;42.292;23.146;2023-05-23T05:07:17;95358.78;;;15.89;88.10
69570;BME280;56781;42.292;23.146;2023-05-23T05:09:44;95338.50;;;17.45;79.59
69570;BME280;56781;42.292;23.146;2023-05-23T05:12:11;95362.66;;;17.82;78.61
69570;BME280;56781;42.292;23.146;2023-05-23T05:14:38;95376.25;;;18.17;75.43
69570;BME280;56781;42.292;23.146;2023-05-23T05:17:05;95356.88;;;18.34;74.26
69570;BME280;56781;42.292;23.146;2023-05-23T05:19:32;95369.03;;;18.05;73.28
69570;BME280;56781;42.292;23.146;2023-05-23T05:22:00;95354.38;;;18.26;73.15
69570;BME280;56781;42.292;23.146;2023-05-23T05:24:27;95373.00;;;18.63;71.05
69570;BME280;56781;42.292;23.146;2023-05-23T05:26:55;95363.72;;;19.41;70.65
69570;BME280;56781;42.292;23.146;2023-05-23T05:29:22;95370.41;;;19.24;69.52
69570;BME280;56781;42.292;23.146;2023-05-23T05:31:50;95377.66;;;19.82;66.54
69570;BME280;56781;42.292;23.146;2023-05-23T05:34:17;95368.56;;;21.38;61.29
69570;BME280;56781;42.292;23.146;2023-05-23T05:36:44;95375.34;;;20.34;63.19
69570;BME280;56781;42.292;23.146;2023-05-23T05:39:14;95367.09;;;21.14;61.59
69570;BME280;56781;42.292;23.146;2023-05-23T05:41:41;95348.56;;;22.08;58.92
69570;BME280;56781;42.292;23.146;2023-05-23T05:44:08;95327.72;;;22.34;56.64
69570;BME280;56781;42.292;23.146;2023-05-23T05:46:35;95344.59;;;23.63;54.52
69570;BME280;56781;42.292;23.146;2023-05-23T05:49:03;95354.06;;;23.94;52.57
69570;BME280;56781;42.292;23.146;2023-05-23T05:51:30;95329.75;;;23.42;52.38
69570;BME280;56781;42.292;23.146;2023-05-23T05:53:57;95344.84;;;25.15;48.25
69570;BME280;56781;42.292;23.146;2023-05-23T05:56:25;95324.09;;;25.07;48.05
69570;BME280;56781;42.292;23.146;2023-05-23T05:58:53;95309.56;;;25.80;45.04
69570;BME280;56781;42.292;23.146;2023-05-23T06:01:20;95348.88;;;25.59;45.23
69570;BME280;56781;42.292;23.146;2023-05-23T06:03:47;95348.97;;;24.14;48.28
69570;BME280;56781;42.292;23.146;2023-05-23T06:06:15;95306.03;;;25.28;44.52
69570;BME280;56781;42.292;23.146;2023-05-23T06:08:42;95350.50;;;24.44;48.02
69570;BME280;56781;42.292;23.146;2023-05-23T06:11:09;95317.56;;;25.60;44.50
69570;BME280;56781;42.292;23.146;2023-05-23T06:13:37;95309.38;;;25.53;42.40
69570;BME280;56781;42.292;23.146;2023-05-23T06:16:05;95338.84;;;26.01;43.14
69570;BME280;56781;42.292;23.146;2023-05-23T06:18:32;95337.22;;;26.52;41.43
69570;BME280;56781;42.292;23.146;2023-05-23T06:20:59;95343.59;;;25.31;43.73
69570;BME280;56781;42.292;23.146;2023-05-23T06:23:26;95340.28;;;25.61;43.02
69570;BME280;56781;42.292;23.146;2023-05-23T06:25:54;95312.53;;;26.07;43.26
69570;BME280;56781;42.292;23.146;2023-05-23T06:28:21;95329.78;;;27.76;39.31
69570;BME280;56781;42.292;23.146;2023-05-23T06:30:48;95322.63;;;28.56;39.26
69570;BME280;56781;42.292;23.146;2023-05-23T06:33:15;95318.81;;;26.87;40.91
69570;BME280;56781;42.292;23.146;2023-05-23T06:35:42;95326.38;;;26.76;40.61
69570;BME280;56781;42.292;23.146;2023-05-23T06:38:09;95320.00;;;27.48;41.25
69570;BME280;56781;42.292;23.146;2023-05-23T06:40:36;95317.63;;;27.19;41.59
69570;BME280;56781;42.292;23.146;2023-05-23T06:43:03;95307.53;;;27.09;41.24
69570;BME280;56781;42.292;23.146;2023-05-23T06:45:30;95314.28;;;26.28;43.55
69570;BME280;56781;42.292;23.146;2023-05-23T06:47:57;95309.13;;;28.38;41.10
69570;BME280;56781;42.292;23.146;2023-05-23T06:50:26;95306.53;;;28.08;38.73
69570;BME280;56781;42.292;23.146;2023-05-23T06:52:54;95303.72;;;27.88;39.18
69570;BME280;56781;42.292;23.146;2023-05-23T06:55:22;95303.75;;;27.30;39.98
69570;BME280;56781;42.292;23.146;2023-05-23T06:57:49;95304.63;;;27.23;41.60
69570;BME280;56781;42.292;23.146;2023-05-23T07:00:18;95293.41;;;26.38;41.40
69570;BME280;56781;42.292;23.146;2023-05-23T07:02:45;95277.84;;;26.28;44.32
69570;BME280;56781;42.292;23.146;2023-05-23T07:05:14;95270.03;;;27.53;44.05
69570;BME280;56781;42.292;23.146;2023-05-23T07:07:42;95282.41;;;26.76;40.93
69570;BME280;56781;42.292;23.146;2023-05-23T07:10:09;95268.19;;;26.50;40.08
69570;BME280;56781;42.292;23.146;2023-05-23T07:12:36;95283.59;;;25.99;39.55
69570;BME280;56781;42.292;23.146;2023-05-23T07:15:03;95281.16;;;26.08;39.24
69570;BME280;56781;42.292;23.146;2023-05-23T07:17:31;95276.81;;;25.62;38.97
69570;BME280;56781;42.292;23.146;2023-05-23T07:19:58;95288.88;;;25.16;38.15
69570;BME280;56781;42.292;23.146;2023-05-23T07:22:25;95279.03;;;25.23;40.39
69570;BME280;56781;42.292;23.146;2023-05-23T07:24:52;95257.13;;;25.23;40.06
69570;BME280;56781;42.292;23.146;2023-05-23T07:27:19;95265.53;;;24.87;41.77
69570;BME280;56781;42.292;23.146;2023-05-23T07:29:46;95282.84;;;24.48;40.11
69570;BME280;56781;42.292;23.146;2023-05-23T07:32:14;95278.19;;;24.45;39.26
69570;BME280;56781;42.292;23.146;2023-05-23T07:34:41;95252.34;;;24.60;38.80
69570;BME280;56781;42.292;23.146;2023-05-23T07:37:08;95255.88;;;24.43;38.48
69570;BME280;56781;42.292;23.146;2023-05-23T07:39:35;95261.75;;;24.34;39.46
69570;BME280;56781;42.292;23.146;2023-05-23T07:42:02;95256.00;;;25.16;39.26
69570;BME280;56781;42.292;23.146;2023-05-23T07:44:30;95275.31;;;24.81;39.77
69570;BME280;56781;42.292;23.146;2023-05-23T07:46:57;95237.50;;;24.54;40.15
69570;BME280;56781;42.292;23.146;2023-05-23T07:49:24;95229.50;;;24.92;39.13
69570;BME280;56781;42.292;23.146;2023-05-23T07:51:51;95253.94;;;24.54;40.64
69570;BME280;56781;42.292;23.146;2023-05-23T07:54:18;95249.75;;;25.09;41.48
69570;BME280;56781;42.292;23.146;2023-05-23T07:56:45;95249.78;;;25.02;40.75
69570;BME280;56781;42.292;23.146;2023-05-23T07:59:12;95246.91;;;25.30;39.89
69570;BME280;56781;42.292;23.146;2023-05-23T08:01:39;95242.88;;;24.75;36.56
69570;BME280;56781;42.292;23.146;2023-05-23T08:04:07;95268.41;;;24.37;38.06
69570;BME280;56781;42.292;23.146;2023-05-23T08:06:35;95257.06;;;24.49;36.16
69570;BME280;56781;42.292;23.146;2023-05-23T08:09:07;95241.44;;;24.46;36.24
69570;BME280;56781;42.292;23.146;2023-05-23T08:11:35;95240.97;;;24.65;38.26
69570;BME280;56781;42.292;23.146;2023-05-23T08:14:02;95258.53;;;25.45;38.06
69570;BME280;56781;42.292;23.146;2023-05-23T08:16:29;95260.59;;;25.30;36.67
69570;BME280;56781;42.292;23.146;2023-05-23T08:18:56;95253.13;;;25.86;37.08
69570;BME280;56781;42.292;23.146;2023-05-23T08:21:24;95255.13;;;25.27;38.04
69570;BME280;56781;42.292;23.146;2023-05-23T08:23:51;95233.97;;;25.31;36.23
69570;BME280;56781;42.292;23.146;2023-05-23T08:26:18;95239.94;;;25.11;36.33
69570;BME280;56781;42.292;23.146;2023-05-23T08:28:45;95243.28;;;24.67;35.62
69570;BME280;56781;42.292;23.146;2023-05-23T08:31:12;95255.81;;;24.68;34.94
69570;BME280;56781;42.292;23.146;2023-05-23T08:33:39;95224.81;;;24.89;35.33
69570;BME280;56781;42.292;23.146;2023-05-23T08:36:06;95223.88;;;25.20;33.54
69570;BME280;56781;42.292;23.146;2023-05-23T08:38:34;95236.56;;;24.86;35.64
69570;BME280;56781;42.292;23.146;2023-05-23T08:41:01;95253.75;;;24.86;36.37
69570;BME280;56781;42.292;23.146;2023-05-23T08:43:28;95215.59;;;24.50;35.36
69570;BME280;56781;42.292;23.146;2023-05-23T08:45:55;95237.84;;;24.63;35.50
69570;BME280;56781;42.292;23.146;2023-05-23T08:48:24;95222.88;;;24.86;34.09
69570;BME280;56781;42.292;23.146;2023-05-23T08:50:52;95247.94;;;24.81;34.76
69570;BME280;56781;42.292;23.146;2023-05-23T08:53:20;95246.06;;;24.63;35.73
69570;BME280;56781;42.292;23.146;2023-05-23T08:55:49;95236.47;;;25.04;35.03
69570;BME280;56781;42.292;23.146;2023-05-23T08:58:21;95243.09;;;25.06;34.41
69570;BME280;56781;42.292;23.146;2023-05-23T09:00:51;95232.75;;;24.62;34.27
69570;BME280;56781;42.292;23.146;2023-05-23T09:03:19;95226.56;;;24.50;34.25
69570;BME280;56781;42.292;23.146;2023-05-23T09:05:48;95222.66;;;24.37;34.02
69570;BME280;56781;42.292;23.146;2023-05-23T09:08:16;95214.09;;;24.31;36.77
69570;BME280;56781;42.292;23.146;2023-05-23T09:10:44;95217.91;;;24.63;35.10
69570;BME280;56781;42.292;23.146;2023-05-23T09:13:12;95232.75;;;24.65;35.56
69570;BME280;56781;42.292;23.146;2023-05-23T09:15:57;95230.28;;;24.92;36.14
69570;BME280;56781;42.292;23.146;2023-05-23T09:18:36;95216.50;;;24.19;34.77
69570;BME280;56781;42.292;23.146;2023-05-23T09:21:03;95212.53;;;24.23;34.90
69570;BME280;56781;42.292;23.146;2023-05-23T09:23:32;95218.50;;;24.99;36.13
69570;BME280;56781;42.292;23.146;2023-05-23T09:26:06;95212.81;;;24.65;35.09
69570;BME280;56781;42.292;23.146;2023-05-23T09:28:35;95220.53;;;24.81;34.23
69570;BME280;56781;42.292;23.146;2023-05-23T09:31:04;95209.88;;;24.97;35.23
69570;BME280;56781;42.292;23.146;2023-05-23T09:33:45;95214.97;;;23.85;33.83
69570;BME280;56781;42.292;23.146;2023-05-23T09:36:16;95233.63;;;24.26;33.29
69570;BME280;56781;42.292;23.146;2023-05-23T09:38:45;95237.16;;;24.30;36.25
69570;BME280;56781;42.292;23.146;2023-05-23T09:41:12;95227.81;;;24.10;33.95
69570;BME280;56781;42.292;23.146;2023-05-23T09:43:49;95209.38;;;24.39;34.92
69570;BME280;56781;42.292;23.146;2023-05-23T09:46:19;95200.44;;;24.24;34.22
69570;BME280;56781;42.292;23.146;2023-05-23T09:48:47;95217.47;;;24.71;35.00
69570;BME280;56781;42.292;23.146;2023-05-23T09:51:18;95210.19;;;24.32;35.42
69570;BME280;56781;42.292;23.146;2023-05-23T09:53:47;95208.72;;;23.88;36.35
69570;BME280;56781;42.292;23.146;2023-05-23T09:56:18;95206.72;;;24.07;34.39
69570;BME280;56781;42.292;23.146;2023-05-23T09:58:47;95205.47;;;24.44;33.53
69570;BME280;56781;42.292;23.146;2023-05-23T10:01:15;95198.44;;;24.46;34.95
69570;BME280;56781;42.292;23.146;2023-05-23T10:03:50;95201.03;;;24.71;35.69
69570;BME280;56781;42.292;23.146;2023-05-23T10:06:50;95203.88;;;24.50;33.76
69570;BME280;56781;42.292;23.146;2023-05-23T10:09:20;95195.00;;;24.17;33.79
69570;BME280;56781;42.292;23.146;2023-05-23T10:14:40;95218.88;;;23.95;31.23
69570;BME280;56781;42.292;23.146;2023-05-23T10:17:24;95202.34;;;24.34;33.86
69570;BME280;56781;42.292;23.146;2023-05-23T10:20:03;95209.50;;;23.96;33.76
69570;BME280;56781;42.292;23.146;2023-05-23T10:22:37;95209.41;;;24.28;33.02
69570;BME280;56781;42.292;23.146;2023-05-23T10:25:05;95193.66;;;24.61;34.51
69570;BME280;56781;42.292;23.146;2023-05-23T10:27:34;95171.75;;;24.61;34.69
69570;BME280;56781;42.292;23.146;2023-05-23T10:30:01;95169.44;;;24.56;32.77
69570;BME280;56781;42.292;23.146;2023-05-23T10:32:29;95176.56;;;24.28;32.43
69570;BME280;56781;42.292;23.146;2023-05-23T10:35:09;95188.31;;;24.32;33.60
69570;BME280;56781;42.292;23.146;2023-05-23T10:37:57;95189.88;;;24.26;32.68
69570;BME280;56781;42.292;23.146;2023-05-23T10:45:42;95193.66;;;24.61;30.98
69570;BME280;56781;42.292;23.146;2023-05-23T10:48:32;95170.47;;;24.84;32.44
69570;BME280;56781;42.292;23.146;2023-05-23T10:51:05;95179.69;;;24.38;32.59
69570;BME280;56781;42.292;23.146;2023-05-23T10:53:35;95183.41;;;24.80;31.49
69570;BME280;56781;42.292;23.146;2023-05-23T10:56:06;95167.28;;;24.89;31.42
69570;BME280;56781;42.292;23.146;2023-05-23T10:58:40;95183.69;;;24.96;31.15
69570;BME280;56781;42.292;23.146;2023-05-23T11:01:08;95178.16;;;24.29;30.84
69570;BME280;56781;42.292;23.146;2023-05-23T11:06:38;95187.88;;;24.41;32.08
69570;BME280;56781;42.292;23.146;2023-05-23T11:09:11;95173.91;;;24.14;31.92
69570;BME280;56781;42.292;23.146;2023-05-23T11:11:55;95181.31;;;24.17;32.04
69570;BME280;56781;42.292;23.146;2023-05-23T11:19:38;95161.59;;;24.62;31.70
69570;BME280;56781;42.292;23.146;2023-05-23T11:22:09;95170.56;;;24.66;31.61
69570;BME280;56781;42.292;23.146;2023-05-23T11:24:55;95156.16;;;24.54;32.40
69570;BME280;56781;42.292;23.146;2023-05-23T11:30:07;95166.66;;;24.70;30.75
69570;BME280;56781;42.292;23.146;2023-05-23T11:32:35;95160.13;;;24.36;30.73
69570;BME280;56781;42.292;23.146;2023-05-23T11:35:08;95155.28;;;24.75;32.14
69570;BME280;56781;42.292;23.146;2023-05-23T11:37:37;95163.19;;;25.22;29.65
69570;BME280;56781;42.292;23.146;2023-05-23T11:42:55;95149.13;;;25.20;31.08
69570;BME280;56781;42.292;23.146;2023-05-23T11:45:22;95153.56;;;24.96;30.97
69570;BME280;56781;42.292;23.146;2023-05-23T11:47:50;95156.81;;;25.36;33.94
69570;BME280;56781;42.292;23.146;2023-05-23T11:50:17;95140.25;;;24.98;31.71
69570;BME280;56781;42.292;23.146;2023-05-23T11:52:46;95141.94;;;24.81;30.63
69570;BME280;56781;42.292;23.146;2023-05-23T11:55:22;95142.66;;;24.89;29.76
69570;BME280;56781;42.292;23.146;2023-05-23T11:57:49;95140.72;;;24.89;29.83
69570;BME280;56781;42.292;23.146;2023-05-23T12:00:18;95142.88;;;24.53;28.67
69570;BME280;56781;42.292;23.146;2023-05-23T12:02:45;95136.41;;;24.88;28.83
69570;BME280;56781;42.292;23.146;2023-05-23T12:05:15;95160.16;;;25.02;30.02
69570;BME280;56781;42.292;23.146;2023-05-23T12:07:47;95139.16;;;24.85;30.74
69570;BME280;56781;42.292;23.146;2023-05-23T12:10:16;95135.84;;;25.11;28.39
69570;BME280;56781;42.292;23.146;2023-05-23T12:12:44;95143.38;;;25.00;29.54
69570;BME280;56781;42.292;23.146;2023-05-23T12:15:12;95128.19;;;24.92;27.43
69570;BME280;56781;42.292;23.146;2023-05-23T12:17:45;95141.81;;;25.48;31.02
69570;BME280;56781;42.292;23.146;2023-05-23T12:20:13;95133.69;;;25.37;29.20
69570;BME280;56781;42.292;23.146;2023-05-23T12:22:41;95120.59;;;25.10;28.05
69570;BME280;56781;42.292;23.146;2023-05-23T12:25:08;95117.91;;;25.52;29.05
69570;BME280;56781;42.292;23.146;2023-05-23T12:27:40;95113.88;;;25.63;28.81
69570;BME280;56781;42.292;23.146;2023-05-23T12:30:13;95103.72;;;25.60;27.97
69570;BME280;56781;42.292;23.146;2023-05-23T12:32:44;95103.94;;;25.39;30.47
69570;BME280;56781;42.292;23.146;2023-05-23T12:35:13;95094.16;;;25.38;28.23
69570;BME280;56781;42.292;23.146;2023-05-23T12:37:45;95085.75;;;25.56;27.20
69570;BME280;56781;42.292;23.146;2023-05-23T12:40:16;95086.22;;;25.02;25.79
69570;BME280;56781;42.292;23.146;2023-05-23T12:42:51;95092.50;;;25.03;25.88
69570;BME280;56781;42.292;23.146;2023-05-23T12:45:23;95091.03;;;25.36;29.53
69570;BME280;56781;42.292;23.146;2023-05-23T12:47:50;95091.78;;;25.40;27.25
69570;BME280;56781;42.292;23.146;2023-05-23T12:50:19;95077.72;;;25.38;25.58
69570;BME280;56781;42.292;23.146;2023-05-23T12:52:47;95082.22;;;25.14;28.38
69570;BME280;56781;42.292;23.146;2023-05-23T12:55:14;95081.34;;;25.24;24.69
69570;BME280;56781;42.292;23.146;2023-05-23T12:57:41;95076.03;;;25.06;23.88
69570;BME280;56781;42.292;23.146;2023-05-23T13:00:08;95068.53;;;25.10;24.35
69570;BME280;56781;42.292;23.146;2023-05-23T13:02:36;95069.66;;;25.20;22.97
69570;BME280;56781;42.292;23.146;2023-05-23T13:05:03;95078.75;;;25.51;24.91
69570;BME280;56781;42.292;23.146;2023-05-23T13:07:30;95061.38;;;25.27;25.55
69570;BME280;56781;42.292;23.146;2023-05-23T13:09:58;95082.06;;;25.35;25.14
69570;BME280;56781;42.292;23.146;2023-05-23T13:12:25;95071.03;;;25.39;27.50
69570;BME280;56781;42.292;23.146;2023-05-23T13:14:53;95074.78;;;25.94;26.17
69570;BME280;56781;42.292;23.146;2023-05-23T13:17:20;95063.28;;;26.06;28.18
69570;BME280;56781;42.292;23.146;2023-05-23T13:19:47;95076.31;;;25.60;27.20
69570;BME280;56781;42.292;23.146;2023-05-23T13:22:14;95066.88;;;25.61;27.77